Kezdőlap
METAR-TAF:

METAR-TAF

Repülőterek :

Yap, Mikronézia

földrajzi szélesség: 09-29N, földrajzi hosszúság: 138-05E, magasság: 28 m

Jelenlegi meteorológiai megfigyelések

A jelentés 16 perccel ezelõtt készült, 09:50 UTC
Kelet-északkeleti szél 10 kt
Hőmérséklet 28°C
Páratartalom 79%
Légköri nyomás 1009 hPa
Látótávolság: 19.3 km
Kevés felhő 1600 lábon
Szakadozott felhőzet 30000 lábon

METAR: PTYA 230950Z 07010KT 12SM FEW016 BKN300 28/24 A2981 RMK SLP096 T02840238

Idő: 20:06 (10:06 UTC)

Előrejelzés

A jelentés 4 órával és 46 perccel ezelõtt készült, 05:20 UTC
Az előrejelzés 23-én 06 óra UTC és 24-én 06 óra UTC között érvényes
Keleti szél 10 kt
Látótávolság: 10 km
Kevés felhő 1600 lábon

TAF: PTYA 230520Z 2306/2406 08010KT P6SM FEW016

Meteorológiai megfigyelések és előrejelzések több, mint 4000 repülőtéren (METAR és TAF jelentéseket).

A térképen piros és sárga pontok jelzik az elérhető meteorológiai állomásokat.

Mozgassa az egeret a pont fölött, hogy megjelenjen az állomás neve.

Azután kattintson az időjárási megfigyelések és előrejelzések megtekintéséhez.

A térkép megváltoztatása: kattintson a fekete keresztel jelölt zöld gombra ráközelítéshez, a vonallal jelölt zöld gombra távolításhoz, vagy a zöld nyilakra a szomszédos térképek eléréséhez.


METAR-TAF: